Time;durP1;ratioP1;P1;durP2;ratioP2;P2;SDS_P1;SDS_P2;PMS_P1;PMS_P2;Temp;Humidity;BMP_temperature;BMP_pressure;BME280_temperature;BME280_humidity;BME280_pressure;Samples;Min_cycle;Max_cycle;Signal;HPM_P1;HPM_P2
2023/12/30 00:02:07;;;;;;;0.95;0.75;;;9.80;1.00;;;;;;5068921;28;20028;-85
2023/12/30 00:04:33;;;;;;;0.10;0.10;;;9.80;1.00;;;;;;5059629;28;20052;-85
2023/12/30 00:07:00;;;;;;;0.15;0.15;;;9.80;4.30;;;;;;5045662;28;20041;-85
2023/12/30 00:09:26;;;;;;;1.65;1.55;;;9.70;12.60;;;;;;5072060;28;20036;-86
2023/12/30 00:11:54;;;;;;;0.40;0.40;;;9.70;13.40;;;;;;5071096;28;20044;-85
2023/12/30 00:14:20;;;;;;;0.13;0.13;;;9.70;18.50;;;;;;5070416;28;20040;-85
2023/12/30 00:16:47;;;;;;;0.10;0.10;;;9.70;26.90;;;;;;5068286;28;20500;-85
2023/12/30 00:19:13;;;;;;;0.35;0.35;;;9.60;37.10;;;;;;5069261;28;20032;-85
2023/12/30 00:21:39;;;;;;;0.40;0.40;;;9.60;36.00;;;;;;5070119;28;20049;-85
2023/12/30 00:24:05;;;;;;;0.47;0.47;;;9.60;41.00;;;;;;5072413;28;20028;-85
2023/12/30 00:26:32;;;;;;;0.43;0.38;;;9.60;44.90;;;;;;5046209;28;20051;-86
2023/12/30 00:29:06;;;;;;;1.75;0.75;;;9.60;51.90;;;;;;5067335;28;20031;-86
2023/12/30 00:31:33;;;;;;;0.20;0.20;;;9.60;57.10;;;;;;5067429;28;20037;-86
2023/12/30 00:34:00;;;;;;;0.35;0.32;;;9.60;60.80;;;;;;5069938;28;20406;-85
2023/12/30 00:36:28;;;;;;;0.50;0.40;;;9.50;42.00;;;;;;5069570;28;20024;-85
2023/12/30 00:38:55;;;;;;;0.40;0.40;;;9.60;28.30;;;;;;5065891;28;20028;-85
2023/12/30 00:41:22;;;;;;;1.40;1.30;;;9.60;23.70;;;;;;5067447;28;20037;-87
2023/12/30 00:43:48;;;;;;;0.10;0.10;;;9.60;19.30;;;;;;5070186;28;20063;-86
2023/12/30 00:46:16;;;;;;;0.30;0.20;;;9.60;25.70;;;;;;5071137;28;20059;-86
2023/12/30 00:48:42;;;;;;;1.17;0.55;;;9.60;40.20;;;;;;5056032;28;20041;-85
2023/12/30 00:51:09;;;;;;;0.57;0.47;;;9.60;68.80;;;;;;5071925;28;20056;-85
2023/12/30 00:53:35;;;;;;;0.10;0.10;;;9.60;44.40;;;;;;5066778;28;20040;-83
2023/12/30 00:56:02;;;;;;;0.10;0.10;;;9.60;31.30;;;;;;5062545;28;20060;-85
2023/12/30 00:58:28;;;;;;;0.20;0.20;;;9.70;1.00;;;;;;5066133;28;20033;-85
2023/12/30 01:00:55;;;;;;;0.20;0.20;;;9.80;1.00;;;;;;5068359;28;20042;-81
2023/12/30 01:03:21;;;;;;;0.13;0.13;;;9.80;1.00;;;;;;5069013;28;20041;-83
2023/12/30 01:05:47;;;;;;;0.20;0.20;;;9.90;1.00;;;;;;5068746;28;20037;-84
2023/12/30 01:08:14;;;;;;;0.10;0.10;;;10.00;1.00;;;;;;5072867;28;20029;-85
2023/12/30 01:10:40;;;;;;;0.20;0.20;;;10.00;1.00;;;;;;5067309;28;20041;-82
2023/12/30 01:13:06;;;;;;;0.10;0.10;;;10.00;1.00;;;;;;5090053;28;20017;-83
2023/12/30 01:15:37;;;;;;;0.10;0.10;;;10.00;1.00;;;;;;5087523;28;20059;-83
2023/12/30 01:18:04;;;;;;;0.10;0.10;;;10.00;1.00;;;;;;5090049;28;20029;-80
2023/12/30 01:20:30;;;;;;;0.10;0.10;;;9.90;1.00;;;;;;5076131;28;20036;-83
2023/12/30 01:22:57;;;;;;;0.10;0.10;;;9.80;1.00;;;;;;5072710;28;20429;-82
2023/12/30 01:25:23;;;;;;;0.10;0.10;;;9.80;1.00;;;;;;5071170;28;20059;-84
2023/12/30 01:27:49;;;;;;;0.10;0.10;;;9.80;1.00;;;;;;5072642;28;20338;-83
2023/12/30 01:30:16;;;;;;;0.20;0.20;;;9.80;1.00;;;;;;5078541;28;20040;-83
2023/12/30 01:32:44;;;;;;;0.10;0.10;;;9.80;1.00;;;;;;5072177;28;20358;-83
2023/12/30 01:35:10;;;;;;;2.22;0.73;;;9.80;1.00;;;;;;5061982;28;20037;-83
2023/12/30 01:37:36;;;;;;;0.10;0.10;;;9.80;1.00;;;;;;5071935;28;20036;-82
2023/12/30 01:40:03;;;;;;;0.17;0.17;;;9.80;1.00;;;;;;5072100;28;20381;-82
2023/12/30 01:42:29;;;;;;;0.20;0.20;;;9.70;1.00;;;;;;5069112;28;20241;-81
2023/12/30 01:44:55;;;;;;;0.10;0.10;;;9.70;1.00;;;;;;5067703;28;20041;-81
2023/12/30 01:47:21;;;;;;;0.75;0.45;;;9.70;1.00;;;;;;5066036;28;20035;-81
2023/12/30 01:49:48;;;;;;;0.88;0.28;;;9.70;1.00;;;;;;5073795;28;20032;-80
2023/12/30 01:52:15;;;;;;;0.20;0.20;;;9.50;1.00;;;;;;5072124;28;20485;-80
2023/12/30 01:54:42;;;;;;;0.10;0.10;;;9.40;1.00;;;;;;5071086;28;20045;-80
2023/12/30 01:57:09;;;;;;;0.20;0.20;;;9.40;1.00;;;;;;5060255;28;20068;-80
2023/12/30 01:59:36;;;;;;;0.17;0.17;;;9.40;1.00;;;;;;5069886;28;20381;-80
2023/12/30 02:02:03;;;;;;;0.20;0.20;;;9.30;1.00;;;;;;5053835;28;20041;-81
2023/12/30 02:04:30;;;;;;;0.20;0.20;;;9.30;1.00;;;;;;5069388;28;20036;-80
2023/12/30 02:06:56;;;;;;;0.10;0.10;;;9.40;1.00;;;;;;5053431;28;20044;-80
2023/12/30 02:09:23;;;;;;;0.40;0.40;;;9.30;1.00;;;;;;5068390;28;20024;-81
2023/12/30 02:11:49;;;;;;;0.20;0.20;;;9.30;1.00;;;;;;5071795;28;20034;-81
2023/12/30 02:14:26;;;;;;;0.85;0.85;;;9.30;1.00;;;;;;5070776;28;20056;-81
2023/12/30 02:16:53;;;;;;;0.10;0.10;;;9.30;1.00;;;;;;5060881;28;20048;-81
2023/12/30 02:19:19;;;;;;;0.10;0.10;;;9.30;1.00;;;;;;5051605;28;20045;-81
2023/12/30 02:21:45;;;;;;;0.43;0.28;;;9.40;1.00;;;;;;5085930;28;20051;-81
2023/12/30 02:24:12;;;;;;;0.90;0.55;;;9.30;1.00;;;;;;5067579;28;20036;-82
2023/12/30 02:26:39;;;;;;;0.10;0.10;;;9.30;1.00;;;;;;5071541;28;20946;-82
2023/12/30 02:29:09;;;;;;;0.10;0.10;;;9.30;8.10;;;;;;5072218;28;20032;-82
2023/12/30 02:31:45;;;;;;;0.10;0.10;;;9.40;23.50;;;;;;5072115;28;20055;-81
2023/12/30 02:34:17;;;;;;;0.65;0.65;;;9.30;29.60;;;;;;5072158;28;20032;-82
2023/12/30 02:36:47;;;;;;;0.10;0.10;;;9.40;31.60;;;;;;5072415;28;20044;-82
2023/12/30 02:39:14;;;;;;;0.10;0.10;;;9.40;29.10;;;;;;5073256;28;20053;-82
2023/12/30 02:41:40;;;;;;;0.20;0.20;;;9.40;26.50;;;;;;5070637;28;20024;-83
2023/12/30 02:44:07;;;;;;;0.30;0.30;;;9.40;21.90;;;;;;5070355;28;20107;-83
2023/12/30 02:46:33;;;;;;;0.17;0.17;;;9.30;29.50;;;;;;5068932;28;20053;-83
2023/12/30 02:49:03;;;;;;;0.10;0.10;;;9.30;37.40;;;;;;5066876;28;20044;-83
2023/12/30 02:51:32;;;;;;;0.10;0.10;;;9.20;42.60;;;;;;5053865;28;20044;-82
2023/12/30 02:53:59;;;;;;;0.10;0.10;;;9.20;27.50;;;;;;5065425;28;20040;-81
2023/12/30 02:56:27;;;;;;;0.32;0.32;;;9.30;1.00;;;;;;5068578;28;20036;-82
2023/12/30 02:59:00;;;;;;;0.10;0.10;;;9.40;1.00;;;;;;5070756;28;20028;-81
2023/12/30 03:01:29;;;;;;;0.28;0.28;;;9.40;1.00;;;;;;5070293;28;20043;-82
2023/12/30 03:04:00;;;;;;;0.40;0.20;;;9.40;1.00;;;;;;5070039;28;20032;-82
2023/12/30 03:06:27;;;;;;;0.30;0.30;;;9.40;1.00;;;;;;5053081;28;20040;-81
2023/12/30 03:08:53;;;;;;;0.20;0.20;;;9.40;1.00;;;;;;5070926;28;20032;-81
2023/12/30 03:11:20;;;;;;;0.10;0.10;;;9.30;1.00;;;;;;5068175;28;20036;-82
2023/12/30 03:13:46;;;;;;;0.47;0.47;;;9.20;1.00;;;;;;5049870;28;20041;-81
2023/12/30 03:16:15;;;;;;;0.10;0.10;;;9.10;61.90;;;;;;5074166;28;20051;-82
2023/12/30 03:18:43;;;;;;;0.35;0.25;;;9.10;98.20;;;;;;5070945;28;20052;-81
2023/12/30 03:21:11;;;;;;;0.10;0.10;;;9.10;95.40;;;;;;5068062;28;20474;-81
2023/12/30 03:23:37;;;;;;;0.10;0.10;;;9.10;23.40;;;;;;5070594;28;20071;-81
2023/12/30 03:26:04;;;;;;;0.40;0.30;;;9.20;5.70;;;;;;5085586;28;20039;-81
2023/12/30 03:28:31;;;;;;;0.20;0.20;;;9.20;10.90;;;;;;5052734;28;20040;-78
2023/12/30 03:30:57;;;;;;;0.30;0.25;;;9.10;27.80;;;;;;5066319;28;20025;-81
2023/12/30 03:33:24;;;;;;;0.47;0.47;;;9.10;9.20;;;;;;5065402;28;20047;-81
2023/12/30 03:35:53;;;;;;;0.40;0.17;;;9.00;1.00;;;;;;5071217;28;20470;-80
2023/12/30 03:38:19;;;;;;;0.10;0.10;;;9.00;1.00;;;;;;5070023;28;20047;-80
2023/12/30 03:40:46;;;;;;;0.20;0.20;;;9.00;1.00;;;;;;5070187;28;20036;-81
2023/12/30 03:43:13;;;;;;;0.10;0.10;;;9.00;1.00;;;;;;5053569;28;20039;-82
2023/12/30 03:45:39;;;;;;;4.57;1.75;;;9.10;1.00;;;;;;5070061;28;20063;-81
2023/12/30 03:48:05;;;;;;;0.10;0.10;;;9.10;1.00;;;;;;5070554;28;20024;-81
2023/12/30 03:50:32;;;;;;;0.32;0.32;;;9.20;1.00;;;;;;5068900;28;20492;-81
2023/12/30 03:52:58;;;;;;;0.10;0.10;;;9.10;1.00;;;;;;5066416;28;20044;-81
2023/12/30 03:55:24;;;;;;;0.43;0.43;;;9.10;1.00;;;;;;5067604;28;20052;-82
2023/12/30 03:57:50;;;;;;;0.43;0.30;;;8.90;21.00;;;;;;5051482;28;20043;-81
2023/12/30 04:00:17;;;;;;;1.00;0.63;;;8.80;99.90;;;;;;5052591;28;20396;-83
2023/12/30 04:02:46;;;;;;;0.15;0.15;;;8.70;99.90;;;;;;5077731;28;20041;-82
2023/12/30 04:05:12;;;;;;;1.70;0.68;;;8.60;99.90;;;;;;5063510;28;20051;-82
2023/12/30 04:07:39;;;;;;;0.60;0.60;;;8.60;99.90;;;;;;5067324;28;20043;-81
2023/12/30 04:10:07;;;;;;;0.10;0.10;;;8.60;99.90;;;;;;5052759;28;20032;-82
2023/12/30 04:12:35;;;;;;;0.32;0.32;;;8.80;99.90;;;;;;5069003;28;20035;-81
2023/12/30 04:15:02;;;;;;;0.30;0.30;;;8.80;99.90;;;;;;5065295;28;20501;-81
2023/12/30 04:17:28;;;;;;;0.30;0.30;;;8.80;99.90;;;;;;5082213;28;20425;-82
2023/12/30 04:19:54;;;;;;;0.30;0.30;;;8.70;99.90;;;;;;5047952;28;20033;-82
2023/12/30 04:22:20;;;;;;;0.20;0.20;;;8.70;99.90;;;;;;5030570;28;20442;-82
2023/12/30 04:24:47;;;;;;;0.10;0.10;;;8.60;99.90;;;;;;5029870;28;20044;-81
2023/12/30 04:27:13;;;;;;;0.10;0.10;;;8.60;99.90;;;;;;5030743;28;20037;-82
2023/12/30 04:29:39;;;;;;;0.10;0.10;;;8.60;99.90;;;;;;5031657;28;20044;-82
2023/12/30 04:32:06;;;;;;;0.20;0.20;;;8.60;99.90;;;;;;5045830;28;20036;-81
2023/12/30 04:34:33;;;;;;;0.10;0.10;;;8.60;99.90;;;;;;5029829;28;20044;-82
2023/12/30 04:36:59;;;;;;;0.25;0.17;;;8.60;99.90;;;;;;5046308;28;20041;-82
2023/12/30 04:39:25;;;;;;;0.10;0.10;;;8.60;99.90;;;;;;5046806;28;20048;-81
2023/12/30 04:41:56;;;;;;;0.10;0.10;;;8.60;99.90;;;;;;5046861;28;20040;-82
2023/12/30 04:44:22;;;;;;;0.85;0.45;;;8.60;99.90;;;;;;5047080;28;20037;-82
2023/12/30 04:46:48;;;;;;;0.65;0.25;;;8.60;99.90;;;;;;5045505;28;20044;-81
2023/12/30 04:49:14;;;;;;;0.10;0.10;;;8.60;99.90;;;;;;5045965;28;20044;-82
2023/12/30 04:51:40;;;;;;;1.20;0.82;;;8.60;99.90;;;;;;5034465;28;20046;-81
2023/12/30 04:54:07;;;;;;;0.40;0.40;;;8.70;99.90;;;;;;5045425;28;20041;-81
2023/12/30 04:56:33;;;;;;;0.30;0.30;;;8.70;99.90;;;;;;5026021;28;20141;-81
2023/12/30 04:59:00;;;;;;;0.10;0.10;;;8.70;99.90;;;;;;5029625;28;20164;-81
2023/12/30 05:01:26;;;;;;;0.35;0.35;;;8.70;99.90;;;;;;5017938;28;20052;-80
2023/12/30 05:03:53;;;;;;;0.10;0.10;;;8.60;99.90;;;;;;5046932;28;20427;-80
2023/12/30 05:06:23;;;;;;;0.30;0.30;;;8.50;99.90;;;;;;5028297;28;20274;-81
2023/12/30 05:08:53;;;;;;;0.10;0.10;;;8.40;99.90;;;;;;5024649;28;20030;-81
2023/12/30 05:11:20;;;;;;;0.55;0.55;;;8.40;99.90;;;;;;5029342;28;20117;-80
2023/12/30 05:13:46;;;;;;;0.20;0.20;;;8.40;99.90;;;;;;5030476;28;20041;-81
2023/12/30 05:16:13;;;;;;;0.35;0.30;;;8.40;99.90;;;;;;5030520;28;20486;-82
2023/12/30 05:18:39;;;;;;;0.25;0.25;;;8.50;99.90;;;;;;5047061;28;20041;-80
2023/12/30 05:21:15;;;;;;;0.95;0.55;;;8.50;99.90;;;;;;5031785;28;20053;-80
2023/12/30 05:23:42;;;;;;;0.20;0.20;;;8.50;99.90;;;;;;5068432;28;20036;-80
2023/12/30 05:26:08;;;;;;;0.38;0.38;;;8.60;99.90;;;;;;5063380;28;20051;-81
2023/12/30 05:28:35;;;;;;;0.10;0.10;;;8.70;99.90;;;;;;5066367;28;20416;-81
2023/12/30 05:31:01;;;;;;;0.20;0.20;;;8.80;99.90;;;;;;5068794;28;20032;-80
2023/12/30 05:33:27;;;;;;;0.10;0.10;;;8.90;91.00;;;;;;5068702;28;20032;-81
2023/12/30 05:35:53;;;;;;;0.20;0.20;;;9.00;55.50;;;;;;5068780;28;20041;-80
2023/12/30 05:38:20;;;;;;;1.27;0.88;;;9.00;30.50;;;;;;5066523;28;20048;-81
2023/12/30 05:40:46;;;;;;;3.65;0.73;;;9.10;19.10;;;;;;5067949;28;20040;-81
2023/12/30 05:43:12;;;;;;;0.40;0.40;;;9.10;20.90;;;;;;5067992;28;20732;-83
2023/12/30 05:45:40;;;;;;;0.17;0.17;;;9.10;22.50;;;;;;5066860;28;20041;-81
2023/12/30 05:48:06;;;;;;;0.35;0.35;;;9.20;26.40;;;;;;5068955;28;20033;-81
2023/12/30 05:50:32;;;;;;;0.20;0.20;;;9.20;34.10;;;;;;5049344;28;20055;-81
2023/12/30 05:53:00;;;;;;;0.20;0.20;;;9.10;38.60;;;;;;5068324;28;20033;-81
2023/12/30 05:55:26;;;;;;;0.20;0.20;;;9.20;30.20;;;;;;5065139;28;20397;-82
2023/12/30 05:57:52;;;;;;;2.63;1.30;;;9.20;21.80;;;;;;5067941;28;20044;-80
2023/12/30 06:00:19;;;;;;;0.10;0.10;;;9.20;15.10;;;;;;5069882;28;20079;-81
2023/12/30 06:02:45;;;;;;;0.63;0.63;;;9.20;4.30;;;;;;5069759;28;20046;-81
2023/12/30 06:05:12;;;;;;;0.17;0.17;;;9.20;6.10;;;;;;5052270;28;20045;-81
2023/12/30 06:07:38;;;;;;;0.57;0.47;;;9.20;1.00;;;;;;5072428;28;20044;-80
2023/12/30 06:10:06;;;;;;;0.38;0.30;;;9.20;1.00;;;;;;5071546;28;20032;-81
2023/12/30 06:12:33;;;;;;;0.43;0.43;;;9.10;2.70;;;;;;5069251;28;20033;-80
2023/12/30 06:14:59;;;;;;;1.50;1.40;;;9.00;12.40;;;;;;5070112;28;20044;-80
2023/12/30 06:17:26;;;;;;;0.10;0.10;;;9.00;21.30;;;;;;5071226;28;20024;-80
2023/12/30 06:19:52;;;;;;;0.10;0.10;;;8.90;29.80;;;;;;5071738;28;20047;-79
2023/12/30 06:22:18;;;;;;;0.10;0.10;;;8.80;48.70;;;;;;5068903;28;20053;-81
2023/12/30 06:24:44;;;;;;;0.20;0.20;;;8.80;59.40;;;;;;5068143;28;20055;-81
2023/12/30 06:27:10;;;;;;;0.57;0.52;;;8.80;79.50;;;;;;5071467;28;20040;-81
2023/12/30 06:29:36;;;;;;;0.35;0.32;;;8.70;99.90;;;;;;5071286;28;20032;-80
2023/12/30 06:32:03;;;;;;;0.85;0.85;;;8.70;99.90;;;;;;5066261;28;20033;-80
2023/12/30 06:34:30;;;;;;;0.10;0.10;;;8.60;99.90;;;;;;5070246;28;20035;-81
2023/12/30 06:36:57;;;;;;;0.20;0.20;;;8.60;99.90;;;;;;5067634;28;20036;-80
2023/12/30 06:39:23;;;;;;;0.40;0.40;;;8.50;99.90;;;;;;5070215;28;20476;-80
2023/12/30 06:41:49;;;;;;;0.20;0.20;;;8.40;99.90;;;;;;5071577;28;20082;-80
2023/12/30 06:44:15;;;;;;;0.30;0.30;;;8.40;99.90;;;;;;5063932;28;20044;-79
2023/12/30 06:46:41;;;;;;;0.10;0.10;;;8.30;99.90;;;;;;5066078;28;20032;-79
2023/12/30 06:49:07;;;;;;;0.10;0.10;;;8.30;99.90;;;;;;5057298;28;20059;-79
2023/12/30 06:51:34;;;;;;;0.20;0.20;;;8.30;99.90;;;;;;5068728;28;20040;-79
2023/12/30 06:54:00;;;;;;;0.70;0.70;;;8.20;99.90;;;;;;5070611;28;20040;-76
2023/12/30 06:56:26;;;;;;;0.57;0.57;;;8.20;99.90;;;;;;5067802;28;20037;-76
2023/12/30 06:58:52;;;;;;;0.20;0.20;;;8.20;99.90;;;;;;5066245;28;20489;-76
2023/12/30 07:01:20;;;;;;;0.20;0.20;;;8.20;1.00;;;;;;5070139;28;20036;-77
2023/12/30 07:03:47;;;;;;;0.52;0.20;;;8.20;1.00;;;;;;5071661;28;20036;-77
2023/12/30 07:06:13;;;;;;;0.20;0.20;;;8.20;1.00;;;;;;5064687;28;20037;-77
2023/12/30 07:08:39;;;;;;;0.20;0.20;;;8.20;1.00;;;;;;5070934;28;20039;-75
2023/12/30 07:11:05;;;;;;;0.43;0.43;;;8.30;1.00;;;;;;5070079;28;20041;-85
2023/12/30 07:13:32;;;;;;;0.45;0.43;;;8.40;1.00;;;;;;5070663;28;20025;-84
2023/12/30 07:15:58;;;;;;;0.17;0.17;;;8.40;1.00;;;;;;5067924;28;20036;-84
2023/12/30 07:18:25;;;;;;;1.65;0.70;;;8.40;1.00;;;;;;5073099;28;20041;-85
2023/12/30 07:20:51;;;;;;;0.10;0.10;;;8.40;1.00;;;;;;5079315;28;20036;-85
2023/12/30 07:23:19;;;;;;;1.85;0.75;;;8.50;1.00;;;;;;5066897;28;20048;-84
2023/12/30 07:25:47;;;;;;;0.10;0.10;;;8.50;1.00;;;;;;5069856;28;20207;-86
2023/12/30 07:28:14;;;;;;;0.35;0.35;;;8.50;99.90;;;;;;5069178;28;20052;-85
2023/12/30 07:30:40;;;;;;;0.10;0.10;;;8.50;99.90;;;;;;5070605;28;20040;-84
2023/12/30 07:33:06;;;;;;;0.10;0.10;;;8.50;99.90;;;;;;5069293;28;20035;-85
2023/12/30 07:35:32;;;;;;;0.10;0.10;;;8.50;99.90;;;;;;5070331;28;20049;-83
2023/12/30 07:37:58;;;;;;;0.10;0.10;;;8.50;99.90;;;;;;5073450;28;20043;-83
2023/12/30 07:40:25;;;;;;;0.75;0.45;;;8.50;99.90;;;;;;5055220;28;20066;-84
2023/12/30 07:42:51;;;;;;;0.17;0.17;;;8.60;99.90;;;;;;5078898;28;20039;-85
2023/12/30 07:45:17;;;;;;;0.45;0.45;;;8.60;99.90;;;;;;5085768;28;20020;-84
2023/12/30 07:47:43;;;;;;;0.10;0.10;;;8.60;99.90;;;;;;5069981;28;20045;-83
2023/12/30 07:50:10;;;;;;;0.20;0.20;;;8.70;99.90;;;;;;5067744;28;20032;-79
2023/12/30 07:52:36;;;;;;;0.10;0.10;;;8.70;99.90;;;;;;5062303;28;20036;-85
2023/12/30 07:55:02;;;;;;;0.20;0.20;;;8.80;99.90;;;;;;5082300;28;20021;-85
2023/12/30 07:57:29;;;;;;;0.22;0.22;;;8.80;99.90;;;;;;5087307;28;20041;-86
2023/12/30 07:59:55;;;;;;;0.70;0.70;;;8.80;99.90;;;;;;5073624;28;20408;-86
2023/12/30 08:02:21;;;;;;;0.15;0.15;;;8.80;99.90;;;;;;5069485;28;20035;-85
2023/12/30 08:04:48;;;;;;;0.15;0.13;;;8.80;99.90;;;;;;5067693;28;20037;-86
2023/12/30 08:07:14;;;;;;;0.40;0.40;;;8.80;99.90;;;;;;5075844;28;20036;-87
2023/12/30 08:09:40;;;;;;;0.73;0.73;;;8.80;99.90;;;;;;5060277;28;20029;-82
2023/12/30 08:12:07;;;;;;;0.20;0.20;;;8.80;99.90;;;;;;5053786;28;20048;-83
2023/12/30 08:14:34;;;;;;;0.30;0.30;;;8.90;99.90;;;;;;5065841;28;20024;-80
2023/12/30 08:17:01;;;;;;;0.10;0.10;;;8.90;99.90;;;;;;5071109;28;20044;-80
2023/12/30 08:19:27;;;;;;;0.40;0.40;;;9.00;99.90;;;;;;5054232;28;20389;-81
2023/12/30 08:21:53;;;;;;;0.68;0.40;;;9.10;99.90;;;;;;5069571;28;20052;-83
2023/12/30 08:24:20;;;;;;;0.28;0.28;;;9.10;99.90;;;;;;5067341;28;20032;-87
2023/12/30 08:26:47;;;;;;;0.20;0.20;;;9.20;99.90;;;;;;5072000;28;20035;-79
2023/12/30 08:29:15;;;;;;;0.40;0.40;;;9.20;99.90;;;;;;5071286;28;20043;-85
2023/12/30 08:31:45;;;;;;;0.10;0.10;;;9.20;99.90;;;;;;5067635;28;20059;-80
2023/12/30 08:34:15;;;;;;;0.10;0.10;;;9.20;99.90;;;;;;5068664;28;20040;-82
2023/12/30 08:36:44;;;;;;;0.10;0.10;;;9.20;99.90;;;;;;5079124;28;20059;-81
2023/12/30 08:39:11;;;;;;;0.20;0.20;;;9.30;99.90;;;;;;5068169;28;20055;-83
2023/12/30 08:41:37;;;;;;;0.65;0.65;;;9.30;99.90;;;;;;5068889;28;20028;-83
2023/12/30 08:44:04;;;;;;;0.80;0.80;;;9.30;99.90;;;;;;5070738;28;20055;-82
2023/12/30 08:46:30;;;;;;;1.30;1.17;;;9.40;99.90;;;;;;5069759;28;20391;-81
2023/12/30 08:48:56;;;;;;;0.20;0.20;;;9.40;99.90;;;;;;5071485;28;20029;-81
2023/12/30 08:51:23;;;;;;;0.20;0.20;;;9.40;99.90;;;;;;5067718;28;20473;-82
2023/12/30 08:53:49;;;;;;;0.22;0.22;;;9.40;99.90;;;;;;5052728;28;20045;-81
2023/12/30 08:56:15;;;;;;;0.10;0.10;;;9.50;99.90;;;;;;5067171;28;20409;-81
2023/12/30 08:58:42;;;;;;;0.40;0.32;;;9.50;99.90;;;;;;5084051;28;20040;-82
2023/12/30 09:01:08;;;;;;;0.10;0.10;;;9.60;99.90;;;;;;5070815;28;20512;-81
2023/12/30 09:03:34;;;;;;;0.10;0.10;;;9.60;99.90;;;;;;5065129;28;20288;-82
2023/12/30 09:06:00;;;;;;;0.88;0.65;;;9.60;99.90;;;;;;5080166;28;20078;-81
2023/12/30 09:08:26;;;;;;;0.52;0.40;;;9.70;99.90;;;;;;5072307;28;20853;-82
2023/12/30 09:10:53;;;;;;;0.20;0.20;;;9.70;99.90;;;;;;5090206;28;20569;-83
2023/12/30 09:13:19;;;;;;;1.10;1.00;;;9.70;99.90;;;;;;5069148;28;20040;-83
2023/12/30 09:15:45;;;;;;;2.15;1.95;;;9.80;98.30;;;;;;5071722;28;20044;-83
2023/12/30 09:18:11;;;;;;;4.22;3.65;;;9.80;95.40;;;;;;5072856;28;20036;-81
2023/12/30 09:20:37;;;;;;;10.48;2.72;;;9.80;93.10;;;;;;5049196;28;20052;-81
2023/12/30 09:23:04;;;;;;;7.28;3.25;;;9.90;90.00;;;;;;5053635;28;20055;-82
2023/12/30 09:25:30;;;;;;;5.45;1.73;;;9.90;87.10;;;;;;5088366;28;20051;-82
2023/12/30 09:27:56;;;;;;;0.30;0.30;;;9.90;80.20;;;;;;5089538;28;20032;-82
2023/12/30 09:30:23;;;;;;;0.70;0.52;;;9.90;73.50;;;;;;5071286;28;20044;-80
2023/12/30 09:32:49;;;;;;;0.82;0.63;;;9.90;83.40;;;;;;5089285;28;20043;-80
2023/12/30 09:35:15;;;;;;;1.55;1.25;;;9.90;91.30;;;;;;5071222;28;20040;-80
2023/12/30 09:37:42;;;;;;;0.30;0.30;;;9.90;93.10;;;;;;5074545;28;20036;-80
2023/12/30 09:40:09;;;;;;;1.05;0.95;;;9.90;91.60;;;;;;5073702;28;20037;-81
2023/12/30 09:42:37;;;;;;;12.95;7.47;;;9.90;99.90;;;;;;5074957;28;20039;-80
2023/12/30 09:45:05;;;;;;;23.88;15.05;;;9.90;99.90;;;;;;5076850;28;20040;-81
2023/12/30 09:47:32;;;;;;;33.30;13.52;;;9.90;99.50;;;;;;5073804;28;20044;-80
2023/12/30 09:49:58;;;;;;;13.93;5.07;;;9.90;99.90;;;;;;5073531;28;20047;-79
2023/12/30 09:52:24;;;;;;;8.13;4.68;;;9.90;98.00;;;;;;5071327;28;20047;-80
2023/12/30 09:54:50;;;;;;;1.55;1.45;;;9.90;90.00;;;;;;5082372;28;20041;-82
2023/12/30 09:57:16;;;;;;;2.22;1.67;;;9.90;92.20;;;;;;5074471;28;20045;-80
2023/12/30 09:59:45;;;;;;;6.07;2.17;;;10.00;94.60;;;;;;5074643;28;20028;-80
2023/12/30 10:02:12;;;;;;;19.35;7.78;;;10.00;80.40;;;;;;5068581;28;20351;-81
2023/12/30 10:04:38;;;;;;;11.45;5.18;;;10.10;55.60;;;;;;5072003;28;20048;-83
2023/12/30 10:07:04;;;;;;;5.47;2.67;;;10.10;21.90;;;;;;5073211;28;20033;-80
2023/12/30 10:09:31;;;;;;;1.13;1.02;;;10.10;10.00;;;;;;5056596;28;20045;-81
2023/12/30 10:11:58;;;;;;;0.52;0.38;;;10.10;1.00;;;;;;5071511;28;20037;-83
2023/12/30 10:14:24;;;;;;;0.10;0.10;;;10.10;1.00;;;;;;5071342;28;20044;-82
2023/12/30 10:16:50;;;;;;;0.25;0.25;;;10.10;1.00;;;;;;5072351;28;20048;-83
2023/12/30 10:19:16;;;;;;;0.20;0.20;;;10.20;1.00;;;;;;5061673;28;20041;-86
2023/12/30 10:21:43;;;;;;;0.10;0.10;;;10.30;1.00;;;;;;5071574;28;20053;-80
2023/12/30 10:24:10;;;;;;;0.10;0.10;;;10.30;1.00;;;;;;5072096;28;20029;-82
2023/12/30 10:26:39;;;;;;;5.28;1.00;;;10.30;1.00;;;;;;5071725;28;20037;-82
2023/12/30 10:29:06;;;;;;;2.00;1.58;;;10.40;1.00;;;;;;5072571;28;20037;-83
2023/12/30 10:31:33;;;;;;;0.93;0.93;;;10.50;1.00;;;;;;5072520;28;20037;-83
2023/12/30 10:33:59;;;;;;;0.90;0.90;;;10.50;1.00;;;;;;5073177;28;20024;-83
2023/12/30 10:36:27;;;;;;;1.85;0.43;;;10.50;1.00;;;;;;5070821;28;20041;-80
2023/12/30 10:38:59;;;;;;;0.55;0.55;;;10.60;1.00;;;;;;5070805;28;20028;-81
2023/12/30 10:41:26;;;;;;;1.85;0.43;;;10.60;1.00;;;;;;5070189;28;20032;-80
2023/12/30 10:43:53;;;;;;;0.50;0.50;;;10.60;1.00;;;;;;5071055;28;20040;-81
2023/12/30 10:46:19;;;;;;;0.40;0.40;;;10.60;1.00;;;;;;5066597;28;20041;-81
2023/12/30 10:48:55;;;;;;;1.55;0.60;;;10.60;1.00;;;;;;5070210;28;20028;-80
2023/12/30 10:51:25;;;;;;;0.57;0.57;;;10.60;1.00;;;;;;5069462;28;20111;-80
2023/12/30 10:54:06;;;;;;;0.13;0.13;;;10.60;1.00;;;;;;5071527;28;20047;-80
2023/12/30 10:56:39;;;;;;;0.20;0.20;;;10.60;1.00;;;;;;5063892;28;20303;-79
2023/12/30 10:59:07;;;;;;;0.55;0.40;;;10.60;1.00;;;;;;5072979;28;20037;-79
2023/12/30 11:01:34;;;;;;;0.43;0.43;;;10.70;1.00;;;;;;5072257;28;20488;-82
2023/12/30 11:04:03;;;;;;;2.35;2.15;;;10.70;1.00;;;;;;5054798;28;20040;-83
2023/12/30 11:06:39;;;;;;;0.30;0.30;;;10.70;1.00;;;;;;5067924;28;20035;-82
2023/12/30 11:09:09;;;;;;;1.02;0.63;;;10.70;1.00;;;;;;5068332;28;20037;-82
2023/12/30 11:11:47;;;;;;;0.10;0.10;;;10.70;99.90;;;;;;5067672;28;20036;-82
2023/12/30 11:14:15;;;;;;;1.58;0.73;;;10.70;99.90;;;;;;5059937;28;20045;-82
2023/12/30 11:16:42;;;;;;;0.90;0.55;;;10.80;99.90;;;;;;5067662;28;20040;-80
2023/12/30 11:19:08;;;;;;;2.05;1.25;;;10.80;99.90;;;;;;5072162;28;20029;-82
2023/12/30 11:21:40;;;;;;;4.35;4.03;;;10.80;99.90;;;;;;5069990;28;20053;-85
2023/12/30 11:24:08;;;;;;;2.05;1.65;;;10.80;99.90;;;;;;5070918;28;20147;-85
2023/12/30 11:26:37;;;;;;;0.55;0.55;;;10.80;99.90;;;;;;5066710;28;20462;-84
2023/12/30 11:29:04;;;;;;;2.17;0.52;;;10.90;99.90;;;;;;5071930;28;20029;-83
2023/12/30 11:31:32;;;;;;;1.20;0.77;;;11.00;99.90;;;;;;5070020;28;20036;-82
2023/12/30 11:33:59;;;;;;;0.98;0.88;;;11.10;99.90;;;;;;5066106;28;20040;-84
2023/12/30 11:36:27;;;;;;;0.10;0.10;;;11.10;99.90;;;;;;5064412;28;20044;-80
2023/12/30 11:38:58;;;;;;;2.17;1.27;;;11.20;99.90;;;;;;5070430;28;20033;-81
2023/12/30 11:41:25;;;;;;;1.02;0.75;;;11.30;99.90;;;;;;5072592;28;20040;-82
2023/12/30 11:43:56;;;;;;;0.10;0.10;;;11.30;99.90;;;;;;5074549;28;20036;-82
2023/12/30 11:46:23;;;;;;;0.10;0.10;;;11.40;99.90;;;;;;5074052;28;20039;-82
2023/12/30 11:48:49;;;;;;;0.10;0.10;;;11.40;99.90;;;;;;5085765;28;20036;-82
2023/12/30 11:51:26;;;;;;;0.22;0.22;;;11.40;99.90;;;;;;5087785;28;20038;-83
2023/12/30 11:53:52;;;;;;;0.22;0.22;;;11.40;78.50;;;;;;5077112;28;20039;-89
2023/12/30 11:56:21;;;;;;;0.30;0.22;;;11.40;55.80;;;;;;5072413;28;20044;-83
2023/12/30 11:58:49;;;;;;;0.20;0.20;;;11.50;28.00;;;;;;5072366;28;20028;-82
2023/12/30 12:01:16;;;;;;;0.25;0.25;;;11.70;15.20;;;;;;5070904;28;20024;-85
2023/12/30 12:03:43;;;;;;;0.20;0.20;;;11.70;12.30;;;;;;5075939;28;20032;-83
2023/12/30 12:06:10;;;;;;;0.13;0.13;;;11.70;1.00;;;;;;5074747;28;20041;-76
2023/12/30 12:08:38;;;;;;;0.20;0.20;;;11.70;1.00;;;;;;5081086;28;20196;-82
2023/12/30 12:11:06;;;;;;;0.47;0.47;;;11.60;1.00;;;;;;5079037;28;20032;-81
2023/12/30 12:13:33;;;;;;;0.20;0.20;;;11.50;1.00;;;;;;5068988;28;20041;-85
2023/12/30 12:15:59;;;;;;;0.20;0.20;;;11.50;1.00;;;;;;5071051;28;20047;-82
2023/12/30 12:18:25;;;;;;;6.88;0.30;;;11.60;1.00;;;;;;5070581;28;20049;-82
2023/12/30 12:20:53;;;;;;;0.57;0.57;;;11.60;1.00;;;;;;5065219;28;20032;-83
2023/12/30 12:23:24;;;;;;;0.10;0.10;;;11.60;1.00;;;;;;5062899;28;20052;-83
2023/12/30 12:25:51;;;;;;;0.32;0.32;;;11.70;1.00;;;;;;5068057;28;20082;-83
2023/12/30 12:28:20;;;;;;;0.25;0.25;;;11.60;1.00;;;;;;5068193;28;20048;-87
2023/12/30 12:30:46;;;;;;;0.40;0.40;;;11.60;1.00;;;;;;5066512;28;20041;-83
2023/12/30 12:33:13;;;;;;;0.77;0.35;;;11.60;1.00;;;;;;5067405;28;20029;-82
2023/12/30 12:35:40;;;;;;;0.50;0.50;;;11.60;1.00;;;;;;5068650;28;20028;-83
2023/12/30 12:38:06;;;;;;;1.67;0.32;;;11.60;1.00;;;;;;5063376;28;20049;-83
2023/12/30 12:40:33;;;;;;;0.10;0.10;;;11.60;1.00;;;;;;5071661;28;20042;-84
2023/12/30 12:42:59;;;;;;;0.20;0.20;;;11.60;1.00;;;;;;5071619;28;20033;-85
2023/12/30 12:45:25;;;;;;;0.10;0.10;;;11.60;1.00;;;;;;5069734;28;20041;-84
2023/12/30 12:47:51;;;;;;;0.20;0.20;;;11.60;1.00;;;;;;5070362;28;20047;-85
2023/12/30 12:50:17;;;;;;;0.98;0.60;;;11.50;1.00;;;;;;5070131;28;20041;-83
2023/12/30 12:52:44;;;;;;;0.30;0.30;;;11.50;1.00;;;;;;5066596;28;20048;-84
2023/12/30 12:55:12;;;;;;;1.20;0.95;;;11.60;1.00;;;;;;5051775;28;20055;-82
2023/12/30 12:57:38;;;;;;;0.52;0.32;;;11.60;1.00;;;;;;5067669;28;20051;-83